sensor_id;sensor_type;location;lat;lon;timestamp;temperature;humidity
22098;DHT22;11215;51.938;8.464;2023-03-01T00:01:27;2.20;58.80
22098;DHT22;11215;51.938;8.464;2023-03-01T00:03:54;2.20;59.10
22098;DHT22;11215;51.938;8.464;2023-03-01T00:06:20;2.10;59.00
22098;DHT22;11215;51.938;8.464;2023-03-01T00:08:46;2.10;59.10
22098;DHT22;11215;51.938;8.464;2023-03-01T00:13:41;2.10;59.10
22098;DHT22;11215;51.938;8.464;2023-03-01T00:16:11;2.10;59.10
22098;DHT22;11215;51.938;8.464;2023-03-01T00:18:37;2.00;59.10
22098;DHT22;11215;51.938;8.464;2023-03-01T00:21:02;2.00;58.90
22098;DHT22;11215;51.938;8.464;2023-03-01T00:23:28;1.90;58.90
22098;DHT22;11215;51.938;8.464;2023-03-01T00:25:54;1.90;59.00
22098;DHT22;11215;51.938;8.464;2023-03-01T00:28:20;1.90;59.10
22098;DHT22;11215;51.938;8.464;2023-03-01T00:30:46;1.90;59.10
22098;DHT22;11215;51.938;8.464;2023-03-01T00:33:12;1.90;59.20
22098;DHT22;11215;51.938;8.464;2023-03-01T00:35:38;1.90;59.20
22098;DHT22;11215;51.938;8.464;2023-03-01T00:38:04;1.90;59.20
22098;DHT22;11215;51.938;8.464;2023-03-01T00:40:32;1.80;59.20
22098;DHT22;11215;51.938;8.464;2023-03-01T00:42:58;1.80;59.20
22098;DHT22;11215;51.938;8.464;2023-03-01T00:45:24;1.80;59.10
22098;DHT22;11215;51.938;8.464;2023-03-01T00:47:50;1.80;59.30
22098;DHT22;11215;51.938;8.464;2023-03-01T00:50:16;1.80;59.30
22098;DHT22;11215;51.938;8.464;2023-03-01T00:52:41;1.70;59.30
22098;DHT22;11215;51.938;8.464;2023-03-01T00:55:07;1.70;59.30
22098;DHT22;11215;51.938;8.464;2023-03-01T00:57:33;1.70;59.40
22098;DHT22;11215;51.938;8.464;2023-03-01T00:59:59;1.70;59.40
22098;DHT22;11215;51.938;8.464;2023-03-01T01:02:25;1.70;59.50
22098;DHT22;11215;51.938;8.464;2023-03-01T01:04:51;1.70;59.40
22098;DHT22;11215;51.938;8.464;2023-03-01T01:07:17;1.70;59.50
22098;DHT22;11215;51.938;8.464;2023-03-01T01:09:43;1.70;59.60
22098;DHT22;11215;51.938;8.464;2023-03-01T01:12:09;1.60;59.40
22098;DHT22;11215;51.938;8.464;2023-03-01T01:14:35;1.60;59.50
22098;DHT22;11215;51.938;8.464;2023-03-01T01:17:01;1.60;59.40
22098;DHT22;11215;51.938;8.464;2023-03-01T01:19:26;1.60;59.50
22098;DHT22;11215;51.938;8.464;2023-03-01T01:21:52;1.60;59.50
22098;DHT22;11215;51.938;8.464;2023-03-01T01:24:18;1.60;59.60
22098;DHT22;11215;51.938;8.464;2023-03-01T01:26:44;1.60;59.70
22098;DHT22;11215;51.938;8.464;2023-03-01T01:29:10;1.60;59.70
22098;DHT22;11215;51.938;8.464;2023-03-01T01:31:37;1.50;59.70
22098;DHT22;11215;51.938;8.464;2023-03-01T01:34:05;1.50;59.80
22098;DHT22;11215;51.938;8.464;2023-03-01T01:36:31;1.50;59.90
22098;DHT22;11215;51.938;8.464;2023-03-01T01:38:57;1.50;59.90
22098;DHT22;11215;51.938;8.464;2023-03-01T01:41:24;1.40;59.90
22098;DHT22;11215;51.938;8.464;2023-03-01T01:47:02;1.40;60.20
22098;DHT22;11215;51.938;8.464;2023-03-01T01:55:05;1.40;59.90
22098;DHT22;11215;51.938;8.464;2023-03-01T02:00:13;1.40;60.00
22098;DHT22;11215;51.938;8.464;2023-03-01T02:02:40;1.40;60.00
22098;DHT22;11215;51.938;8.464;2023-03-01T02:05:19;1.40;60.00
22098;DHT22;11215;51.938;8.464;2023-03-01T02:07:48;1.30;60.10
22098;DHT22;11215;51.938;8.464;2023-03-01T02:10:15;1.30;60.00
22098;DHT22;11215;51.938;8.464;2023-03-01T02:12:41;1.30;60.00
22098;DHT22;11215;51.938;8.464;2023-03-01T02:15:08;1.30;60.10
22098;DHT22;11215;51.938;8.464;2023-03-01T02:17:34;1.30;60.20
22098;DHT22;11215;51.938;8.464;2023-03-01T02:21:15;1.30;60.10
22098;DHT22;11215;51.938;8.464;2023-03-01T02:23:04;1.20;60.30
22098;DHT22;11215;51.938;8.464;2023-03-01T02:30:42;1.20;60.30
22098;DHT22;11215;51.938;8.464;2023-03-01T02:33:30;1.20;60.40
22098;DHT22;11215;51.938;8.464;2023-03-01T02:36:06;1.20;60.50
22098;DHT22;11215;51.938;8.464;2023-03-01T02:38:33;1.20;60.50
22098;DHT22;11215;51.938;8.464;2023-03-01T02:41:00;1.20;60.40
22098;DHT22;11215;51.938;8.464;2023-03-01T02:43:30;1.20;60.50
22098;DHT22;11215;51.938;8.464;2023-03-01T02:46:06;1.20;60.50
22098;DHT22;11215;51.938;8.464;2023-03-01T02:48:44;1.10;60.50
22098;DHT22;11215;51.938;8.464;2023-03-01T02:57:05;1.10;60.50
22098;DHT22;11215;51.938;8.464;2023-03-01T02:59:33;1.10;60.20
22098;DHT22;11215;51.938;8.464;2023-03-01T03:02:05;1.10;60.30
22098;DHT22;11215;51.938;8.464;2023-03-01T03:04:31;1.00;60.30
22098;DHT22;11215;51.938;8.464;2023-03-01T03:06:57;1.00;60.40
22098;DHT22;11215;51.938;8.464;2023-03-01T03:09:23;1.00;60.50
22098;DHT22;11215;51.938;8.464;2023-03-01T03:11:48;1.00;60.60
22098;DHT22;11215;51.938;8.464;2023-03-01T03:14:16;1.00;60.70
22098;DHT22;11215;51.938;8.464;2023-03-01T03:16:44;1.00;60.80
22098;DHT22;11215;51.938;8.464;2023-03-01T03:19:10;1.00;60.80
22098;DHT22;11215;51.938;8.464;2023-03-01T03:21:36;1.00;60.80
22098;DHT22;11215;51.938;8.464;2023-03-01T03:24:02;0.90;60.80
22098;DHT22;11215;51.938;8.464;2023-03-01T03:26:28;0.90;60.80
22098;DHT22;11215;51.938;8.464;2023-03-01T03:28:54;0.90;60.90
22098;DHT22;11215;51.938;8.464;2023-03-01T03:31:19;0.90;60.80
22098;DHT22;11215;51.938;8.464;2023-03-01T03:33:45;0.90;61.70
22098;DHT22;11215;51.938;8.464;2023-03-01T03:36:16;0.90;60.90
22098;DHT22;11215;51.938;8.464;2023-03-01T03:38:43;0.80;61.00
22098;DHT22;11215;51.938;8.464;2023-03-01T03:41:10;0.80;60.90
22098;DHT22;11215;51.938;8.464;2023-03-01T03:43:38;0.90;60.90
22098;DHT22;11215;51.938;8.464;2023-03-01T03:46:04;0.80;60.90
22098;DHT22;11215;51.938;8.464;2023-03-01T03:48:41;0.80;60.80
22098;DHT22;11215;51.938;8.464;2023-03-01T03:51:10;0.80;60.90
22098;DHT22;11215;51.938;8.464;2023-03-01T03:53:36;0.80;61.00
22098;DHT22;11215;51.938;8.464;2023-03-01T03:56:02;0.80;61.10
22098;DHT22;11215;51.938;8.464;2023-03-01T03:58:29;0.70;61.10
22098;DHT22;11215;51.938;8.464;2023-03-01T04:00:56;0.70;61.20
22098;DHT22;11215;51.938;8.464;2023-03-01T04:03:23;0.80;61.40
22098;DHT22;11215;51.938;8.464;2023-03-01T04:05:50;0.80;61.40
22098;DHT22;11215;51.938;8.464;2023-03-01T04:08:18;0.70;61.30
22098;DHT22;11215;51.938;8.464;2023-03-01T04:10:47;0.70;61.30
22098;DHT22;11215;51.938;8.464;2023-03-01T04:13:16;0.70;61.20
22098;DHT22;11215;51.938;8.464;2023-03-01T04:15:42;0.70;61.20
22098;DHT22;11215;51.938;8.464;2023-03-01T04:18:15;0.70;61.10
22098;DHT22;11215;51.938;8.464;2023-03-01T04:20:41;0.70;61.20
22098;DHT22;11215;51.938;8.464;2023-03-01T04:23:15;0.60;61.10
22098;DHT22;11215;51.938;8.464;2023-03-01T04:28:25;0.60;61.20
22098;DHT22;11215;51.938;8.464;2023-03-01T04:30:52;0.60;61.20
22098;DHT22;11215;51.938;8.464;2023-03-01T04:33:18;0.60;61.20
22098;DHT22;11215;51.938;8.464;2023-03-01T04:35:45;0.60;61.20
22098;DHT22;11215;51.938;8.464;2023-03-01T04:38:11;0.50;61.20
22098;DHT22;11215;51.938;8.464;2023-03-01T04:40:39;0.50;61.20
22098;DHT22;11215;51.938;8.464;2023-03-01T04:43:05;0.50;61.30
22098;DHT22;11215;51.938;8.464;2023-03-01T04:45:32;0.50;61.40
22098;DHT22;11215;51.938;8.464;2023-03-01T04:47:59;0.50;61.40
22098;DHT22;11215;51.938;8.464;2023-03-01T04:50:25;0.40;61.40
22098;DHT22;11215;51.938;8.464;2023-03-01T04:52:51;0.50;61.50
22098;DHT22;11215;51.938;8.464;2023-03-01T04:55:17;0.40;61.40
22098;DHT22;11215;51.938;8.464;2023-03-01T04:57:43;0.40;61.40
22098;DHT22;11215;51.938;8.464;2023-03-01T05:00:11;0.40;61.60
22098;DHT22;11215;51.938;8.464;2023-03-01T05:02:51;0.40;61.70
22098;DHT22;11215;51.938;8.464;2023-03-01T05:05:22;0.40;61.80
22098;DHT22;11215;51.938;8.464;2023-03-01T05:07:51;0.30;61.60
22098;DHT22;11215;51.938;8.464;2023-03-01T05:10:17;0.40;61.80
22098;DHT22;11215;51.938;8.464;2023-03-01T05:12:43;0.30;61.70
22098;DHT22;11215;51.938;8.464;2023-03-01T05:15:09;0.30;61.70
22098;DHT22;11215;51.938;8.464;2023-03-01T05:17:35;0.30;61.90
22098;DHT22;11215;51.938;8.464;2023-03-01T05:20:01;0.30;61.90
22098;DHT22;11215;51.938;8.464;2023-03-01T05:22:28;0.30;62.10
22098;DHT22;11215;51.938;8.464;2023-03-01T05:24:54;0.30;62.20
22098;DHT22;11215;51.938;8.464;2023-03-01T05:27:20;0.30;62.10
22098;DHT22;11215;51.938;8.464;2023-03-01T05:29:48;0.30;62.20
22098;DHT22;11215;51.938;8.464;2023-03-01T05:32:14;0.30;62.10
22098;DHT22;11215;51.938;8.464;2023-03-01T05:34:41;0.30;62.10
22098;DHT22;11215;51.938;8.464;2023-03-01T05:37:07;0.30;62.10
22098;DHT22;11215;51.938;8.464;2023-03-01T05:39:34;0.30;62.00
22098;DHT22;11215;51.938;8.464;2023-03-01T05:42:00;0.20;62.00
22098;DHT22;11215;51.938;8.464;2023-03-01T05:44:27;0.30;62.00
22098;DHT22;11215;51.938;8.464;2023-03-01T05:46:54;0.20;62.20
22098;DHT22;11215;51.938;8.464;2023-03-01T05:49:20;0.20;62.20
22098;DHT22;11215;51.938;8.464;2023-03-01T05:51:50;0.20;62.30
22098;DHT22;11215;51.938;8.464;2023-03-01T05:54:16;0.20;62.60
22098;DHT22;11215;51.938;8.464;2023-03-01T05:56:42;0.20;62.60
22098;DHT22;11215;51.938;8.464;2023-03-01T05:59:08;0.20;62.80
22098;DHT22;11215;51.938;8.464;2023-03-01T06:01:35;0.20;62.80
22098;DHT22;11215;51.938;8.464;2023-03-01T06:04:01;0.20;62.90
22098;DHT22;11215;51.938;8.464;2023-03-01T06:06:28;0.20;62.90
22098;DHT22;11215;51.938;8.464;2023-03-01T06:08:53;0.20;62.90
22098;DHT22;11215;51.938;8.464;2023-03-01T06:11:20;0.20;62.90
22098;DHT22;11215;51.938;8.464;2023-03-01T06:13:46;0.20;62.90
22098;DHT22;11215;51.938;8.464;2023-03-01T06:16:13;0.20;62.80
22098;DHT22;11215;51.938;8.464;2023-03-01T06:18:39;0.20;62.70
22098;DHT22;11215;51.938;8.464;2023-03-01T06:21:05;0.20;62.50
22098;DHT22;11215;51.938;8.464;2023-03-01T06:23:31;0.20;62.50
22098;DHT22;11215;51.938;8.464;2023-03-01T06:25:57;0.10;62.40
22098;DHT22;11215;51.938;8.464;2023-03-01T06:28:34;0.20;62.50
22098;DHT22;11215;51.938;8.464;2023-03-01T06:31:01;0.10;62.80
22098;DHT22;11215;51.938;8.464;2023-03-01T06:33:28;0.10;62.60
22098;DHT22;11215;51.938;8.464;2023-03-01T06:39:18;0.10;63.10
22098;DHT22;11215;51.938;8.464;2023-03-01T06:41:44;0.10;62.90
22098;DHT22;11215;51.938;8.464;2023-03-01T06:44:10;0.00;62.90
22098;DHT22;11215;51.938;8.464;2023-03-01T06:46:36;0.00;63.10
22098;DHT22;11215;51.938;8.464;2023-03-01T06:49:02;0.00;63.30
22098;DHT22;11215;51.938;8.464;2023-03-01T06:51:32;0.00;63.40
22098;DHT22;11215;51.938;8.464;2023-03-01T06:53:58;0.00;63.50
22098;DHT22;11215;51.938;8.464;2023-03-01T06:56:24;0.10;63.70
22098;DHT22;11215;51.938;8.464;2023-03-01T06:58:49;0.10;63.80
22098;DHT22;11215;51.938;8.464;2023-03-01T07:01:15;0.10;63.80
22098;DHT22;11215;51.938;8.464;2023-03-01T07:03:40;0.20;63.80
22098;DHT22;11215;51.938;8.464;2023-03-01T07:06:09;0.20;63.90
22098;DHT22;11215;51.938;8.464;2023-03-01T07:08:35;0.20;63.80
22098;DHT22;11215;51.938;8.464;2023-03-01T07:11:01;0.20;63.80
22098;DHT22;11215;51.938;8.464;2023-03-01T07:13:28;0.30;63.90
22098;DHT22;11215;51.938;8.464;2023-03-01T07:15:54;0.30;64.00
22098;DHT22;11215;51.938;8.464;2023-03-01T07:18:20;0.30;64.00
22098;DHT22;11215;51.938;8.464;2023-03-01T07:20:45;0.30;64.10
22098;DHT22;11215;51.938;8.464;2023-03-01T07:23:11;0.40;64.20
22098;DHT22;11215;51.938;8.464;2023-03-01T07:25:36;0.40;64.20
22098;DHT22;11215;51.938;8.464;2023-03-01T07:28:02;0.50;64.40
22098;DHT22;11215;51.938;8.464;2023-03-01T07:30:28;0.50;64.50
22098;DHT22;11215;51.938;8.464;2023-03-01T07:32:57;0.50;64.50
22098;DHT22;11215;51.938;8.464;2023-03-01T07:35:25;0.60;64.80
22098;DHT22;11215;51.938;8.464;2023-03-01T07:37:52;0.60;64.80
22098;DHT22;11215;51.938;8.464;2023-03-01T07:40:17;0.70;64.90
22098;DHT22;11215;51.938;8.464;2023-03-01T07:42:43;0.80;65.00
22098;DHT22;11215;51.938;8.464;2023-03-01T07:45:09;0.90;65.10
22098;DHT22;11215;51.938;8.464;2023-03-01T07:47:36;0.90;65.10
22098;DHT22;11215;51.938;8.464;2023-03-01T07:50:02;1.00;65.10
22098;DHT22;11215;51.938;8.464;2023-03-01T08:02:25;1.50;65.10
22098;DHT22;11215;51.938;8.464;2023-03-01T08:04:50;1.60;64.70
22098;DHT22;11215;51.938;8.464;2023-03-01T08:07:16;1.80;64.90
22098;DHT22;11215;51.938;8.464;2023-03-01T08:09:41;1.90;65.10
22098;DHT22;11215;51.938;8.464;2023-03-01T08:12:07;2.00;65.20
22098;DHT22;11215;51.938;8.464;2023-03-01T08:14:33;2.20;65.00
22098;DHT22;11215;51.938;8.464;2023-03-01T08:16:58;2.40;64.80
22098;DHT22;11215;51.938;8.464;2023-03-01T08:19:24;2.50;64.80
22098;DHT22;11215;51.938;8.464;2023-03-01T08:21:50;2.80;64.80
22098;DHT22;11215;51.938;8.464;2023-03-01T08:24:15;3.00;64.50
22098;DHT22;11215;51.938;8.464;2023-03-01T08:26:41;3.20;63.90
22098;DHT22;11215;51.938;8.464;2023-03-01T08:29:07;3.40;63.60
22098;DHT22;11215;51.938;8.464;2023-03-01T08:31:35;3.60;63.10
22098;DHT22;11215;51.938;8.464;2023-03-01T08:34:10;3.80;62.90
22098;DHT22;11215;51.938;8.464;2023-03-01T08:36:39;4.00;62.10
22098;DHT22;11215;51.938;8.464;2023-03-01T08:39:06;4.20;61.60
22098;DHT22;11215;51.938;8.464;2023-03-01T08:41:32;4.40;61.00
22098;DHT22;11215;51.938;8.464;2023-03-01T08:43:57;4.50;60.50
22098;DHT22;11215;51.938;8.464;2023-03-01T08:46:31;4.60;60.20
22098;DHT22;11215;51.938;8.464;2023-03-01T08:48:57;4.70;59.80
22098;DHT22;11215;51.938;8.464;2023-03-01T08:51:23;4.80;59.50
22098;DHT22;11215;51.938;8.464;2023-03-01T08:53:49;4.80;59.20
22098;DHT22;11215;51.938;8.464;2023-03-01T08:56:16;4.80;59.00
22098;DHT22;11215;51.938;8.464;2023-03-01T08:58:44;4.90;58.90
22098;DHT22;11215;51.938;8.464;2023-03-01T09:01:13;5.00;58.80
22098;DHT22;11215;51.938;8.464;2023-03-01T09:03:39;5.00;58.70
22098;DHT22;11215;51.938;8.464;2023-03-01T09:06:06;5.00;58.50
22098;DHT22;11215;51.938;8.464;2023-03-01T09:08:38;5.10;58.60
22098;DHT22;11215;51.938;8.464;2023-03-01T09:11:05;5.20;58.50
22098;DHT22;11215;51.938;8.464;2023-03-01T09:13:31;5.20;58.50
22098;DHT22;11215;51.938;8.464;2023-03-01T09:15:58;5.20;58.20
22098;DHT22;11215;51.938;8.464;2023-03-01T09:18:24;5.30;58.00
22098;DHT22;11215;51.938;8.464;2023-03-01T09:20:50;5.30;58.10
22098;DHT22;11215;51.938;8.464;2023-03-01T09:23:15;5.40;57.90
22098;DHT22;11215;51.938;8.464;2023-03-01T09:25:41;5.40;57.80
22098;DHT22;11215;51.938;8.464;2023-03-01T09:28:07;5.50;57.70
22098;DHT22;11215;51.938;8.464;2023-03-01T09:30:32;5.50;57.70
22098;DHT22;11215;51.938;8.464;2023-03-01T09:32:58;5.60;57.70
22098;DHT22;11215;51.938;8.464;2023-03-01T09:35:24;5.60;57.40
22098;DHT22;11215;51.938;8.464;2023-03-01T09:37:49;5.60;57.30
22098;DHT22;11215;51.938;8.464;2023-03-01T09:40:23;5.70;57.20
22098;DHT22;11215;51.938;8.464;2023-03-01T09:45:40;5.80;57.00
22098;DHT22;11215;51.938;8.464;2023-03-01T09:48:16;5.90;56.60
22098;DHT22;11215;51.938;8.464;2023-03-01T09:50:44;6.00;56.80
22098;DHT22;11215;51.938;8.464;2023-03-01T09:53:17;6.00;56.80
22098;DHT22;11215;51.938;8.464;2023-03-01T09:56:04;6.10;56.50
22098;DHT22;11215;51.938;8.464;2023-03-01T09:58:43;6.10;56.10
22098;DHT22;11215;51.938;8.464;2023-03-01T10:06:41;6.30;55.90
22098;DHT22;11215;51.938;8.464;2023-03-01T10:09:14;6.30;56.10
22098;DHT22;11215;51.938;8.464;2023-03-01T10:11:52;6.40;55.90
22098;DHT22;11215;51.938;8.464;2023-03-01T10:14:43;6.40;55.50
22098;DHT22;11215;51.938;8.464;2023-03-01T10:20:21;6.50;55.10
22098;DHT22;11215;51.938;8.464;2023-03-01T10:22:48;6.60;55.60
22098;DHT22;11215;51.938;8.464;2023-03-01T10:31:02;6.70;55.10
22098;DHT22;11215;51.938;8.464;2023-03-01T10:33:31;6.70;55.40
22098;DHT22;11215;51.938;8.464;2023-03-01T10:35:57;6.80;55.40
22098;DHT22;11215;51.938;8.464;2023-03-01T10:38:23;6.80;55.40
22098;DHT22;11215;51.938;8.464;2023-03-01T10:41:06;6.90;55.30
22098;DHT22;11215;51.938;8.464;2023-03-01T10:49:17;7.00;54.60
22098;DHT22;11215;51.938;8.464;2023-03-01T10:51:46;7.10;54.40
22098;DHT22;11215;51.938;8.464;2023-03-01T10:54:30;7.10;54.80
22098;DHT22;11215;51.938;8.464;2023-03-01T10:57:01;7.20;54.60
22098;DHT22;11215;51.938;8.464;2023-03-01T10:59:30;7.20;54.90
22098;DHT22;11215;51.938;8.464;2023-03-01T11:04:27;7.30;54.60
22098;DHT22;11215;51.938;8.464;2023-03-01T11:07:00;7.30;54.80
22098;DHT22;11215;51.938;8.464;2023-03-01T11:09:31;7.40;54.40
22098;DHT22;11215;51.938;8.464;2023-03-01T11:12:03;7.40;54.50
22098;DHT22;11215;51.938;8.464;2023-03-01T11:14:38;7.40;54.70
22098;DHT22;11215;51.938;8.464;2023-03-01T11:17:15;7.40;54.20
22098;DHT22;11215;51.938;8.464;2023-03-01T11:19:41;7.50;53.90
22098;DHT22;11215;51.938;8.464;2023-03-01T11:22:17;7.60;54.00
22098;DHT22;11215;51.938;8.464;2023-03-01T11:24:51;7.60;53.50
22098;DHT22;11215;51.938;8.464;2023-03-01T11:27:24;7.60;53.60
22098;DHT22;11215;51.938;8.464;2023-03-01T11:30:12;7.60;53.50
22098;DHT22;11215;51.938;8.464;2023-03-01T11:32:45;7.60;53.60
22098;DHT22;11215;51.938;8.464;2023-03-01T11:35:19;7.70;53.70
22098;DHT22;11215;51.938;8.464;2023-03-01T11:40:44;7.70;52.60
22098;DHT22;11215;51.938;8.464;2023-03-01T11:46:36;7.80;52.60
22098;DHT22;11215;51.938;8.464;2023-03-01T11:54:57;7.90;52.60
22098;DHT22;11215;51.938;8.464;2023-03-01T12:14:30;8.10;51.50
22098;DHT22;11215;51.938;8.464;2023-03-01T12:17:27;8.10;52.10
22098;DHT22;11215;51.938;8.464;2023-03-01T13:09:23;8.80;50.10
22098;DHT22;11215;51.938;8.464;2023-03-01T13:11:51;8.80;50.00
22098;DHT22;11215;51.938;8.464;2023-03-01T13:17:43;8.80;49.90
22098;DHT22;11215;51.938;8.464;2023-03-01T13:23:38;8.90;50.00
22098;DHT22;11215;51.938;8.464;2023-03-01T13:29:26;9.00;49.20
22098;DHT22;11215;51.938;8.464;2023-03-01T13:38:45;9.10;49.10
22098;DHT22;11215;51.938;8.464;2023-03-01T13:41:51;9.20;50.00
22098;DHT22;11215;51.938;8.464;2023-03-01T13:44:36;9.20;48.30
22098;DHT22;11215;51.938;8.464;2023-03-01T13:53:47;9.30;48.40
22098;DHT22;11215;51.938;8.464;2023-03-01T14:06:24;9.40;46.80
22098;DHT22;11215;51.938;8.464;2023-03-01T14:29:27;9.40;46.00
22098;DHT22;11215;51.938;8.464;2023-03-01T14:32:27;9.40;45.80
22098;DHT22;11215;51.938;8.464;2023-03-01T14:34:54;9.40;46.10
22098;DHT22;11215;51.938;8.464;2023-03-01T14:37:34;9.40;46.70
22098;DHT22;11215;51.938;8.464;2023-03-01T14:40:02;9.50;45.60
22098;DHT22;11215;51.938;8.464;2023-03-01T14:49:31;9.50;45.80
22098;DHT22;11215;51.938;8.464;2023-03-01T14:52:06;9.50;45.80
22098;DHT22;11215;51.938;8.464;2023-03-01T14:57:25;9.50;45.50
22098;DHT22;11215;51.938;8.464;2023-03-01T15:00:03;9.50;46.40
22098;DHT22;11215;51.938;8.464;2023-03-01T15:05:52;9.50;45.90
22098;DHT22;11215;51.938;8.464;2023-03-01T15:11:46;9.50;45.30
22098;DHT22;11215;51.938;8.464;2023-03-01T15:17:36;9.60;45.60
22098;DHT22;11215;51.938;8.464;2023-03-01T15:57:11;9.50;45.60
22098;DHT22;11215;51.938;8.464;2023-03-01T15:59:37;9.50;45.70
22098;DHT22;11215;51.938;8.464;2023-03-01T16:02:12;9.40;46.20
22098;DHT22;11215;51.938;8.464;2023-03-01T16:04:39;9.40;45.90
22098;DHT22;11215;51.938;8.464;2023-03-01T16:07:31;9.30;46.30
22098;DHT22;11215;51.938;8.464;2023-03-01T16:09:57;9.40;45.80
22098;DHT22;11215;51.938;8.464;2023-03-01T16:12:23;9.30;46.40
22098;DHT22;11215;51.938;8.464;2023-03-01T16:14:50;9.30;46.40
22098;DHT22;11215;51.938;8.464;2023-03-01T16:17:15;9.30;46.50
22098;DHT22;11215;51.938;8.464;2023-03-01T16:19:41;9.20;46.40
22098;DHT22;11215;51.938;8.464;2023-03-01T16:22:09;9.20;46.40
22098;DHT22;11215;51.938;8.464;2023-03-01T16:24:35;9.20;46.40
22098;DHT22;11215;51.938;8.464;2023-03-01T16:27:02;9.20;46.50
22098;DHT22;11215;51.938;8.464;2023-03-01T16:29:27;9.20;46.60
22098;DHT22;11215;51.938;8.464;2023-03-01T16:31:54;9.20;46.50
22098;DHT22;11215;51.938;8.464;2023-03-01T16:34:20;9.20;46.50
22098;DHT22;11215;51.938;8.464;2023-03-01T16:36:47;9.20;46.50
22098;DHT22;11215;51.938;8.464;2023-03-01T16:39:13;9.10;46.40
22098;DHT22;11215;51.938;8.464;2023-03-01T16:41:38;9.10;46.50
22098;DHT22;11215;51.938;8.464;2023-03-01T16:44:04;9.10;46.50
22098;DHT22;11215;51.938;8.464;2023-03-01T16:46:30;9.00;46.40
22098;DHT22;11215;51.938;8.464;2023-03-01T16:48:56;8.90;46.40
22098;DHT22;11215;51.938;8.464;2023-03-01T16:51:23;8.90;46.50
22098;DHT22;11215;51.938;8.464;2023-03-01T16:53:49;8.90;46.40
22098;DHT22;11215;51.938;8.464;2023-03-01T16:56:16;8.80;46.60
22098;DHT22;11215;51.938;8.464;2023-03-01T16:58:42;8.80;46.70
22098;DHT22;11215;51.938;8.464;2023-03-01T17:01:15;8.80;46.70
22098;DHT22;11215;51.938;8.464;2023-03-01T17:03:41;8.70;46.60
22098;DHT22;11215;51.938;8.464;2023-03-01T17:06:11;8.70;46.70
22098;DHT22;11215;51.938;8.464;2023-03-01T17:08:37;8.60;46.70
22098;DHT22;11215;51.938;8.464;2023-03-01T17:11:12;8.60;46.90
22098;DHT22;11215;51.938;8.464;2023-03-01T17:13:39;8.50;46.90
22098;DHT22;11215;51.938;8.464;2023-03-01T17:16:06;8.50;47.00
22098;DHT22;11215;51.938;8.464;2023-03-01T17:18:33;8.40;47.00
22098;DHT22;11215;51.938;8.464;2023-03-01T17:20:59;8.40;47.10
22098;DHT22;11215;51.938;8.464;2023-03-01T17:23:26;8.30;47.10
22098;DHT22;11215;51.938;8.464;2023-03-01T17:25:52;8.20;47.20
22098;DHT22;11215;51.938;8.464;2023-03-01T17:28:18;8.20;47.20
22098;DHT22;11215;51.938;8.464;2023-03-01T17:30:44;8.10;47.30
22098;DHT22;11215;51.938;8.464;2023-03-01T17:33:13;8.10;48.00
22098;DHT22;11215;51.938;8.464;2023-03-01T17:35:38;8.00;47.50
22098;DHT22;11215;51.938;8.464;2023-03-01T17:38:05;8.00;47.50
22098;DHT22;11215;51.938;8.464;2023-03-01T17:40:32;7.90;47.60
22098;DHT22;11215;51.938;8.464;2023-03-01T17:42:58;7.90;47.70
22098;DHT22;11215;51.938;8.464;2023-03-01T17:45:24;7.80;47.70
22098;DHT22;11215;51.938;8.464;2023-03-01T17:47:50;7.80;47.70
22098;DHT22;11215;51.938;8.464;2023-03-01T17:50:15;7.70;47.80
22098;DHT22;11215;51.938;8.464;2023-03-01T17:52:41;7.70;47.80
22098;DHT22;11215;51.938;8.464;2023-03-01T17:55:08;7.60;47.90
22098;DHT22;11215;51.938;8.464;2023-03-01T17:57:37;7.60;47.90
22098;DHT22;11215;51.938;8.464;2023-03-01T18:00:04;7.50;47.90
22098;DHT22;11215;51.938;8.464;2023-03-01T18:02:30;7.50;48.10
22098;DHT22;11215;51.938;8.464;2023-03-01T18:04:57;7.40;48.10
22098;DHT22;11215;51.938;8.464;2023-03-01T18:07:25;7.40;48.20
22098;DHT22;11215;51.938;8.464;2023-03-01T18:09:51;7.30;48.20
22098;DHT22;11215;51.938;8.464;2023-03-01T18:12:17;7.20;48.30
22098;DHT22;11215;51.938;8.464;2023-03-01T18:14:43;7.20;48.40
22098;DHT22;11215;51.938;8.464;2023-03-01T18:17:08;7.10;48.40
22098;DHT22;11215;51.938;8.464;2023-03-01T18:19:37;7.10;48.50
22098;DHT22;11215;51.938;8.464;2023-03-01T18:22:06;7.10;48.70
22098;DHT22;11215;51.938;8.464;2023-03-01T18:24:33;7.00;48.70
22098;DHT22;11215;51.938;8.464;2023-03-01T18:26:58;7.00;48.70
22098;DHT22;11215;51.938;8.464;2023-03-01T18:29:24;6.90;48.60
22098;DHT22;11215;51.938;8.464;2023-03-01T18:31:50;6.90;48.70
22098;DHT22;11215;51.938;8.464;2023-03-01T18:34:15;6.80;48.80
22098;DHT22;11215;51.938;8.464;2023-03-01T18:36:41;6.80;48.90
22098;DHT22;11215;51.938;8.464;2023-03-01T18:39:07;6.70;48.90
22098;DHT22;11215;51.938;8.464;2023-03-01T18:41:33;6.70;49.00
22098;DHT22;11215;51.938;8.464;2023-03-01T18:44:00;6.60;49.10
22098;DHT22;11215;51.938;8.464;2023-03-01T18:46:26;6.60;49.20
22098;DHT22;11215;51.938;8.464;2023-03-01T18:48:53;6.50;49.20
22098;DHT22;11215;51.938;8.464;2023-03-01T18:51:22;6.50;49.30
22098;DHT22;11215;51.938;8.464;2023-03-01T18:53:48;6.40;49.40
22098;DHT22;11215;51.938;8.464;2023-03-01T18:56:13;6.40;49.50
22098;DHT22;11215;51.938;8.464;2023-03-01T18:58:40;6.30;49.60
22098;DHT22;11215;51.938;8.464;2023-03-01T19:01:13;6.20;49.70
22098;DHT22;11215;51.938;8.464;2023-03-01T19:03:39;6.20;49.80
22098;DHT22;11215;51.938;8.464;2023-03-01T19:06:05;6.10;49.80
22098;DHT22;11215;51.938;8.464;2023-03-01T19:08:31;6.10;50.00
22098;DHT22;11215;51.938;8.464;2023-03-01T19:10:58;6.00;50.00
22098;DHT22;11215;51.938;8.464;2023-03-01T19:13:24;6.00;50.10
22098;DHT22;11215;51.938;8.464;2023-03-01T19:15:50;5.90;50.20
22098;DHT22;11215;51.938;8.464;2023-03-01T19:18:16;5.90;50.20
22098;DHT22;11215;51.938;8.464;2023-03-01T19:20:42;5.90;50.40
22098;DHT22;11215;51.938;8.464;2023-03-01T19:23:08;5.90;50.40
22098;DHT22;11215;51.938;8.464;2023-03-01T19:25:34;5.80;50.50
22098;DHT22;11215;51.938;8.464;2023-03-01T19:28:00;5.80;50.60
22098;DHT22;11215;51.938;8.464;2023-03-01T19:30:25;5.80;50.70
22098;DHT22;11215;51.938;8.464;2023-03-01T19:32:52;5.80;50.70
22098;DHT22;11215;51.938;8.464;2023-03-01T19:35:18;5.70;50.80
22098;DHT22;11215;51.938;8.464;2023-03-01T19:37:44;5.70;50.80
22098;DHT22;11215;51.938;8.464;2023-03-01T19:40:10;5.70;50.80
22098;DHT22;11215;51.938;8.464;2023-03-01T19:42:36;5.70;50.90
22098;DHT22;11215;51.938;8.464;2023-03-01T19:45:02;5.70;50.90
22098;DHT22;11215;51.938;8.464;2023-03-01T19:47:27;5.70;51.00
22098;DHT22;11215;51.938;8.464;2023-03-01T19:49:53;5.60;51.00
22098;DHT22;11215;51.938;8.464;2023-03-01T19:52:18;5.60;51.10
22098;DHT22;11215;51.938;8.464;2023-03-01T19:54:44;5.60;51.20
22098;DHT22;11215;51.938;8.464;2023-03-01T19:57:11;5.60;51.20
22098;DHT22;11215;51.938;8.464;2023-03-01T19:59:36;5.50;51.20
22098;DHT22;11215;51.938;8.464;2023-03-01T20:02:02;5.50;51.30
22098;DHT22;11215;51.938;8.464;2023-03-01T20:04:28;5.50;51.30
22098;DHT22;11215;51.938;8.464;2023-03-01T20:06:54;5.50;51.40